Time;durP1;ratioP1;P1;durP2;ratioP2;P2;SDS_P1;SDS_P2;PMS_P1;PMS_P2;Temp;Humidity;BMP_temperature;BMP_pressure;BME280_temperature;BME280_humidity;BME280_pressure;Samples;Min_cycle;Max_cycle;Signal;HPM_P1;HPM_P2
2021/09/06 00:01:04;;;;;;;14.57;13.27;;;13.80;99.90;;;;;;4989396;28;20228;-80
2021/09/06 00:03:31;;;;;;;14.00;12.77;;;13.70;99.90;;;;;;4970752;28;20201;-81
2021/09/06 00:05:59;;;;;;;13.47;12.37;;;13.70;99.90;;;;;;4970289;28;20228;-81
2021/09/06 00:08:26;;;;;;;13.40;12.00;;;13.70;99.90;;;;;;4986131;28;20223;-81
2021/09/06 00:11:02;;;;;;;13.53;12.27;;;13.70;99.90;;;;;;4989628;28;20197;-80
2021/09/06 00:13:28;;;;;;;13.67;12.37;;;13.70;99.90;;;;;;4972049;28;20212;-80
2021/09/06 00:15:55;;;;;;;13.73;12.53;;;13.60;99.90;;;;;;4971392;28;20201;-80
2021/09/06 00:18:22;;;;;;;12.50;11.40;;;13.60;99.90;;;;;;4968820;28;20235;-81
2021/09/06 00:20:49;;;;;;;13.67;12.47;;;13.60;99.90;;;;;;4992922;28;20271;-80
2021/09/06 00:23:17;;;;;;;13.37;12.13;;;13.60;99.90;;;;;;4992064;28;20599;-81
2021/09/06 00:25:45;;;;;;;13.87;12.67;;;13.60;99.90;;;;;;4987102;28;20209;-81
2021/09/06 00:28:12;;;;;;;13.60;12.23;;;13.50;99.90;;;;;;4970623;28;20221;-81
2021/09/06 00:30:39;;;;;;;13.30;12.10;;;13.50;99.90;;;;;;4972211;28;20208;-81
2021/09/06 00:33:06;;;;;;;13.97;12.77;;;13.50;99.90;;;;;;4989971;28;20202;-81
2021/09/06 00:35:33;;;;;;;13.87;12.67;;;13.50;99.90;;;;;;4973179;28;20276;-81
2021/09/06 00:38:00;;;;;;;13.47;12.27;;;13.50;99.90;;;;;;5000890;28;20228;-80
2021/09/06 00:40:28;;;;;;;13.57;12.37;;;13.50;99.90;;;;;;4987921;28;20229;-81
2021/09/06 00:42:55;;;;;;;13.87;12.47;;;13.50;99.90;;;;;;4975207;28;20196;-80
2021/09/06 00:45:22;;;;;;;13.37;12.13;;;13.50;99.90;;;;;;4984530;28;20620;-81
2021/09/06 00:47:49;;;;;;;14.03;12.53;;;13.50;99.90;;;;;;4974607;28;20605;-81
2021/09/06 00:50:18;;;;;;;13.83;12.63;;;13.50;99.90;;;;;;4990580;28;20204;-81
2021/09/06 00:52:47;;;;;;;13.40;12.30;;;13.40;99.90;;;;;;4985167;28;20263;-81
2021/09/06 00:55:16;;;;;;;17.47;15.87;;;13.30;99.90;;;;;;4969621;28;20201;-80
2021/09/06 00:57:45;;;;;;;14.17;12.73;;;13.40;99.90;;;;;;4990119;28;20275;-81
2021/09/06 01:00:13;;;;;;;13.27;12.10;;;13.40;99.90;;;;;;4971364;28;20220;-79
2021/09/06 01:02:41;;;;;;;12.90;11.80;;;13.40;99.90;;;;;;4971693;28;20201;-80
2021/09/06 01:05:11;;;;;;;13.53;12.23;;;13.30;99.90;;;;;;4988760;28;20193;-79
2021/09/06 01:07:56;;;;;;;13.57;12.30;;;13.20;99.90;;;;;;4985444;28;20239;-81
2021/09/06 01:10:42;;;;;;;13.83;12.50;;;13.20;99.90;;;;;;4992735;28;20215;-81
2021/09/06 01:13:31;;;;;;;14.20;12.83;;;13.20;99.90;;;;;;4973988;28;20716;-80
2021/09/06 01:15:58;;;;;;;13.97;12.77;;;13.10;99.90;;;;;;4970448;28;20262;-81
2021/09/06 01:18:27;;;;;;;13.90;12.50;;;13.10;99.90;;;;;;4984246;28;20637;-81
2021/09/06 01:20:55;;;;;;;14.00;12.70;;;13.00;99.90;;;;;;4971492;28;20200;-81
2021/09/06 01:23:34;;;;;;;14.17;12.80;;;13.00;99.90;;;;;;4971721;28;20200;-81
2021/09/06 01:26:15;;;;;;;12.87;11.77;;;13.00;99.90;;;;;;4970738;28;20204;-79
2021/09/06 01:28:42;;;;;;;13.40;12.30;;;13.00;99.90;;;;;;4971443;28;20226;-81
2021/09/06 01:31:09;;;;;;;13.07;11.93;;;12.90;99.90;;;;;;4970538;28;20212;-80
2021/09/06 01:33:44;;;;;;;13.27;12.17;;;12.90;99.90;;;;;;4975499;28;20644;-81
2021/09/06 01:36:12;;;;;;;13.87;12.47;;;12.90;99.90;;;;;;4972962;28;20206;-81
2021/09/06 01:38:40;;;;;;;14.03;12.73;;;12.90;99.90;;;;;;4968200;28;20223;-80
2021/09/06 01:41:06;;;;;;;14.03;12.73;;;12.90;99.90;;;;;;4969317;28;20210;-80
2021/09/06 01:43:35;;;;;;;13.07;11.97;;;12.80;99.90;;;;;;4972409;28;20286;-80
2021/09/06 01:46:02;;;;;;;14.57;13.17;;;12.80;99.90;;;;;;4989188;28;20696;-79
2021/09/06 01:48:32;;;;;;;13.80;12.60;;;12.70;99.90;;;;;;4971707;28;20687;-78
2021/09/06 01:50:59;;;;;;;13.20;12.00;;;12.70;99.90;;;;;;4987696;28;20211;-81
2021/09/06 01:53:27;;;;;;;13.63;12.50;;;12.70;99.90;;;;;;4966794;28;20219;-81
2021/09/06 01:55:58;;;;;;;13.17;12.03;;;12.70;99.90;;;;;;4970767;28;20263;-78
2021/09/06 01:58:25;;;;;;;14.30;12.90;;;12.70;99.90;;;;;;4987122;28;20211;-80
2021/09/06 02:00:53;;;;;;;14.60;13.10;;;12.60;99.90;;;;;;4986611;28;20536;-80
2021/09/06 02:03:26;;;;;;;14.10;12.90;;;12.60;99.90;;;;;;4993201;28;20203;-80
2021/09/06 02:05:55;;;;;;;14.90;13.70;;;12.60;99.90;;;;;;4970160;28;20211;-79
2021/09/06 02:08:41;;;;;;;12.83;11.70;;;12.50;99.90;;;;;;4994316;28;20229;-80
2021/09/06 02:11:08;;;;;;;12.77;11.67;;;12.50;99.90;;;;;;4967060;28;20204;-79
2021/09/06 02:13:36;;;;;;;13.77;12.57;;;12.40;99.90;;;;;;4985783;28;20318;-80
2021/09/06 02:16:06;;;;;;;15.20;13.80;;;12.40;99.90;;;;;;4970900;28;20294;-81
2021/09/06 02:18:35;;;;;;;13.40;12.20;;;12.30;99.90;;;;;;4971781;28;20273;-81
2021/09/06 02:21:02;;;;;;;12.80;11.67;;;12.40;99.90;;;;;;4969163;28;20273;-80
2021/09/06 02:23:29;;;;;;;13.97;12.67;;;12.40;99.90;;;;;;4983092;28;20198;-80
2021/09/06 02:25:58;;;;;;;13.30;12.20;;;12.30;99.90;;;;;;4970397;28;20224;-80
2021/09/06 02:28:25;;;;;;;14.10;12.90;;;12.30;99.90;;;;;;4968875;28;20292;-80
2021/09/06 02:30:56;;;;;;;14.13;12.73;;;12.30;99.90;;;;;;4986032;28;20214;-79
2021/09/06 02:33:38;;;;;;;14.00;12.87;;;12.30;99.90;;;;;;4972477;28;20218;-79
2021/09/06 02:36:14;;;;;;;13.87;12.67;;;12.30;99.90;;;;;;4970612;28;20611;-79
2021/09/06 02:38:41;;;;;;;13.63;12.53;;;12.30;99.90;;;;;;4973453;28;20302;-78
2021/09/06 02:41:14;;;;;;;14.73;13.30;;;12.20;99.90;;;;;;4963385;28;20215;-77
2021/09/06 02:43:42;;;;;;;13.37;12.20;;;12.20;99.90;;;;;;4970159;28;20203;-79
2021/09/06 02:46:09;;;;;;;13.93;12.73;;;12.20;99.90;;;;;;4971895;28;20288;-77
2021/09/06 02:48:37;;;;;;;13.73;12.33;;;12.20;99.90;;;;;;4971652;28;20811;-78
2021/09/06 02:51:05;;;;;;;13.53;12.40;;;12.20;99.90;;;;;;4973270;28;20194;-78
2021/09/06 02:53:33;;;;;;;13.67;12.47;;;12.20;99.90;;;;;;4989653;28;20309;-77
2021/09/06 02:56:00;;;;;;;15.50;14.10;;;12.10;99.90;;;;;;4989536;28;20204;-78
2021/09/06 02:58:28;;;;;;;14.03;12.83;;;12.10;99.90;;;;;;4985136;28;20250;-78
2021/09/06 03:00:56;;;;;;;13.87;12.73;;;12.10;99.90;;;;;;4987902;28;20229;-78
2021/09/06 03:03:24;;;;;;;14.40;13.13;;;12.10;99.90;;;;;;4971041;28;20211;-78
2021/09/06 03:05:53;;;;;;;14.57;13.07;;;12.00;99.90;;;;;;4969209;28;20212;-78
2021/09/06 03:08:20;;;;;;;15.07;13.70;;;12.00;99.90;;;;;;4969339;28;20576;-77
2021/09/06 03:10:49;;;;;;;14.80;13.50;;;12.00;99.90;;;;;;4971957;28;20215;-78
2021/09/06 03:13:17;;;;;;;14.93;13.63;;;12.00;99.90;;;;;;4970483;28;20800;-78
2021/09/06 03:15:47;;;;;;;14.73;13.53;;;12.00;99.90;;;;;;4966331;28;20209;-78
2021/09/06 03:18:14;;;;;;;14.50;13.00;;;11.90;99.90;;;;;;4987553;28;20250;-77
2021/09/06 03:21:05;;;;;;;15.33;13.97;;;11.90;99.90;;;;;;4970653;28;20220;-77
2021/09/06 03:23:32;;;;;;;14.50;13.30;;;11.90;99.90;;;;;;4966037;28;20228;-77
2021/09/06 03:25:59;;;;;;;15.90;14.47;;;11.90;99.90;;;;;;4969319;28;20206;-77
2021/09/06 03:28:26;;;;;;;15.70;14.33;;;11.90;99.90;;;;;;4986255;28;20300;-78
2021/09/06 03:30:53;;;;;;;15.07;13.87;;;11.90;99.90;;;;;;4983653;28;20210;-78
2021/09/06 03:33:21;;;;;;;15.87;14.47;;;11.90;99.90;;;;;;4986622;28;20232;-78
2021/09/06 03:35:52;;;;;;;15.20;13.80;;;11.90;99.90;;;;;;4977021;28;20229;-78
2021/09/06 03:38:22;;;;;;;15.63;14.23;;;11.90;99.90;;;;;;4971733;28;20284;-79
2021/09/06 03:40:49;;;;;;;16.00;14.67;;;11.80;99.90;;;;;;4986275;28;20213;-78
2021/09/06 03:43:17;;;;;;;16.57;14.97;;;11.80;99.90;;;;;;4971865;28;20194;-78
2021/09/06 03:45:44;;;;;;;14.80;13.50;;;11.80;99.90;;;;;;4964139;28;20205;-77
2021/09/06 03:48:12;;;;;;;15.47;14.07;;;11.80;99.90;;;;;;4964357;28;20225;-77
2021/09/06 03:50:39;;;;;;;15.70;14.40;;;11.80;99.90;;;;;;4969739;28;20713;-78
2021/09/06 03:53:10;;;;;;;14.93;13.63;;;11.80;99.90;;;;;;4958867;28;20227;-78
2021/09/06 03:55:39;;;;;;;15.70;14.10;;;11.80;99.90;;;;;;4973039;28;20225;-78
2021/09/06 03:58:08;;;;;;;16.13;14.80;;;11.70;99.90;;;;;;4962935;28;20218;-78
2021/09/06 04:00:38;;;;;;;14.90;13.60;;;11.70;99.90;;;;;;4971839;28;20199;-78
2021/09/06 04:03:07;;;;;;;14.73;13.33;;;11.70;99.90;;;;;;4967978;28;20197;-78
2021/09/06 04:05:36;;;;;;;15.27;13.97;;;11.80;99.90;;;;;;4972668;28;20297;-80
2021/09/06 04:08:06;;;;;;;15.63;14.23;;;11.70;99.90;;;;;;4973800;28;20217;-77
2021/09/06 04:10:33;;;;;;;15.90;14.40;;;11.70;99.90;;;;;;4970451;28;20229;-81
2021/09/06 04:13:02;;;;;;;15.77;14.40;;;11.70;99.90;;;;;;4975356;28;20214;-77
2021/09/06 04:15:29;;;;;;;15.00;13.60;;;11.70;99.90;;;;;;4972037;28;20202;-80
2021/09/06 04:17:58;;;;;;;15.07;13.87;;;11.70;99.90;;;;;;4965565;28;20697;-82
2021/09/06 04:20:25;;;;;;;15.50;14.20;;;11.60;99.90;;;;;;4994652;28;20304;-85
2021/09/06 04:22:53;;;;;;;16.23;14.83;;;11.60;99.90;;;;;;4991283;28;20661;-79
2021/09/06 04:25:21;;;;;;;15.40;14.10;;;11.60;99.90;;;;;;4973150;28;20208;-79
2021/09/06 04:27:48;;;;;;;15.60;14.20;;;11.50;99.90;;;;;;4985962;28;20226;-78
2021/09/06 04:30:18;;;;;;;16.67;14.97;;;11.50;99.90;;;;;;4980775;28;20284;-78
2021/09/06 04:32:46;;;;;;;11.07;9.97;;;11.60;99.90;;;;;;4977371;28;20213;-77
2021/09/06 04:35:13;;;;;;;12.00;10.47;;;11.50;99.90;;;;;;4981252;28;20198;-79
2021/09/06 04:37:40;;;;;;;11.93;10.63;;;11.50;99.90;;;;;;4973429;28;20241;-78
2021/09/06 04:40:13;;;;;;;12.27;10.97;;;11.40;99.90;;;;;;4967009;28;20209;-78
2021/09/06 04:42:41;;;;;;;11.57;10.37;;;11.40;99.90;;;;;;4977239;28;20193;-78
2021/09/06 04:45:10;;;;;;;14.70;10.23;;;11.40;99.90;;;;;;4971635;28;20198;-78
2021/09/06 04:47:41;;;;;;;11.47;10.27;;;11.40;99.90;;;;;;4978111;28;20221;-79
2021/09/06 04:50:09;;;;;;;12.10;10.57;;;11.40;99.90;;;;;;4971117;28;20213;-78
2021/09/06 04:52:37;;;;;;;12.97;11.00;;;11.40;99.90;;;;;;4978285;28;20201;-79
2021/09/06 04:55:08;;;;;;;12.33;10.93;;;11.30;99.90;;;;;;4971864;28;20198;-78
2021/09/06 04:57:35;;;;;;;11.80;10.40;;;11.30;99.90;;;;;;4963909;28;20218;-77
2021/09/06 05:00:02;;;;;;;11.57;10.23;;;11.30;99.90;;;;;;4975353;28;20228;-78
2021/09/06 05:02:30;;;;;;;11.47;10.33;;;11.30;99.90;;;;;;4971838;28;20208;-77
2021/09/06 05:05:00;;;;;;;11.70;10.50;;;11.30;99.90;;;;;;4976081;28;20285;-78
2021/09/06 05:07:27;;;;;;;11.27;10.17;;;11.30;99.90;;;;;;4976140;28;20256;-78
2021/09/06 05:09:54;;;;;;;11.40;10.20;;;11.30;99.90;;;;;;4987975;28;20550;-78
2021/09/06 05:12:21;;;;;;;12.67;11.37;;;11.40;99.90;;;;;;4993954;28;20660;-78
2021/09/06 05:14:48;;;;;;;11.47;10.27;;;11.50;99.90;;;;;;4971437;28;20217;-78
2021/09/06 05:17:14;;;;;;;13.67;11.03;;;11.50;99.90;;;;;;4976350;28;20217;-78
2021/09/06 05:19:42;;;;;;;12.73;11.27;;;11.50;99.90;;;;;;4987573;28;20283;-78
2021/09/06 05:22:10;;;;;;;12.00;10.80;;;11.50;99.90;;;;;;4989375;28;20261;-78
2021/09/06 05:24:39;;;;;;;11.80;10.00;;;11.50;99.90;;;;;;4973861;28;20200;-78
2021/09/06 05:27:08;;;;;;;12.37;9.90;;;11.60;99.90;;;;;;4963776;28;20221;-78
2021/09/06 05:29:35;;;;;;;11.43;10.30;;;11.60;99.90;;;;;;4972567;28;20233;-82
2021/09/06 05:32:02;;;;;;;11.70;9.83;;;11.70;99.90;;;;;;4966530;28;20199;-84
2021/09/06 05:34:29;;;;;;;11.70;10.43;;;11.70;99.90;;;;;;4995764;28;20228;-84
2021/09/06 05:39:35;;;;;;;13.00;10.70;;;12.00;99.90;;;;;;4989280;28;20686;-78
2021/09/06 05:42:04;;;;;;;10.53;9.43;;;12.20;99.90;;;;;;4979482;28;20208;-79
2021/09/06 05:44:32;;;;;;;9.10;8.10;;;12.20;99.90;;;;;;4974063;28;20193;-78
2021/09/06 05:47:02;;;;;;;14.93;13.70;;;12.40;99.90;;;;;;4977467;28;20202;-77
2021/09/06 05:49:32;;;;;;;17.00;15.47;;;12.50;99.90;;;;;;4956951;28;20196;-78
2021/09/06 05:51:59;;;;;;;15.60;14.37;;;12.60;99.90;;;;;;4957104;28;20254;-78
2021/09/06 05:54:32;;;;;;;17.13;15.53;;;12.80;99.90;;;;;;4956869;28;20305;-79
2021/09/06 05:57:00;;;;;;;16.67;15.50;;;13.00;99.90;;;;;;4957033;28;20654;-80
2021/09/06 05:59:29;;;;;;;16.50;15.30;;;13.20;99.90;;;;;;4960838;28;20256;-77
2021/09/06 06:01:56;;;;;;;16.63;15.23;;;13.30;99.90;;;;;;4971682;28;20560;-77
2021/09/06 06:04:23;;;;;;;15.60;14.30;;;13.40;99.90;;;;;;4956911;28;20204;-79
2021/09/06 06:06:54;;;;;;;15.20;13.93;;;13.40;99.90;;;;;;4956356;28;20212;-79
2021/09/06 06:09:22;;;;;;;15.87;14.40;;;13.50;99.90;;;;;;4974194;28;20223;-78
2021/09/06 06:11:50;;;;;;;15.30;14.03;;;13.50;99.90;;;;;;4964593;28;20232;-78
2021/09/06 06:14:25;;;;;;;15.17;13.97;;;13.70;99.90;;;;;;4957137;28;20223;-78
2021/09/06 06:16:54;;;;;;;14.33;13.23;;;13.80;99.90;;;;;;4960092;28;20209;-79
2021/09/06 06:19:22;;;;;;;15.63;14.10;;;14.00;99.90;;;;;;4978292;28;20235;-79
2021/09/06 06:22:08;;;;;;;13.63;12.50;;;14.10;99.90;;;;;;4956855;28;20276;-79
2021/09/06 06:24:50;;;;;;;14.17;12.97;;;14.10;99.90;;;;;;4956784;28;20582;-79
2021/09/06 06:27:46;;;;;;;14.70;13.47;;;14.20;99.90;;;;;;4965026;28;20241;-79
2021/09/06 06:30:16;;;;;;;13.40;12.33;;;14.30;99.90;;;;;;4954945;28;20216;-79
2021/09/06 06:32:44;;;;;;;14.13;13.00;;;14.30;99.90;;;;;;4955294;28;20218;-77
2021/09/06 06:35:28;;;;;;;14.33;13.23;;;14.40;99.90;;;;;;4954610;28;20265;-79
2021/09/06 06:37:55;;;;;;;13.53;12.53;;;14.50;99.90;;;;;;4958262;28;20230;-78
2021/09/06 06:40:23;;;;;;;14.03;13.00;;;14.50;99.90;;;;;;4958594;28;20202;-79
2021/09/06 06:42:54;;;;;;;13.93;12.83;;;14.60;99.90;;;;;;4952523;28;20265;-80
2021/09/06 06:45:22;;;;;;;13.07;12.07;;;14.70;99.90;;;;;;4969710;28;20202;-77
2021/09/06 06:47:49;;;;;;;14.47;13.47;;;14.80;99.90;;;;;;4954411;28;20226;-78
2021/09/06 06:50:16;;;;;;;14.27;13.17;;;14.90;99.90;;;;;;4954683;28;20238;-77
2021/09/06 06:52:43;;;;;;;14.00;12.77;;;15.00;99.90;;;;;;4954124;28;20198;-79
2021/09/06 06:55:11;;;;;;;13.60;12.50;;;15.10;99.90;;;;;;4954427;28;20308;-78
2021/09/06 06:57:38;;;;;;;12.30;11.30;;;15.20;99.90;;;;;;4954569;28;20249;-78
2021/09/06 07:00:08;;;;;;;12.00;11.03;;;15.30;99.90;;;;;;4955951;28;20232;-79
2021/09/06 07:02:39;;;;;;;12.10;11.10;;;15.40;99.90;;;;;;4955798;28;20198;-77
2021/09/06 07:05:09;;;;;;;12.40;11.40;;;15.50;99.90;;;;;;4955840;28;20237;-78
2021/09/06 07:07:40;;;;;;;10.13;9.23;;;15.60;99.90;;;;;;4955488;28;20657;-79
2021/09/06 07:10:09;;;;;;;11.40;10.43;;;15.70;99.90;;;;;;4955724;28;20292;-76
2021/09/06 07:12:36;;;;;;;13.43;12.40;;;15.80;99.90;;;;;;4973184;28;20205;-78
2021/09/06 07:15:04;;;;;;;12.70;11.60;;;16.00;99.90;;;;;;4955606;28;20302;-77
2021/09/06 07:17:31;;;;;;;13.57;12.30;;;16.20;99.90;;;;;;4955807;28;20229;-78
2021/09/06 07:19:59;;;;;;;11.50;10.60;;;16.50;99.90;;;;;;4955539;28;20250;-78
2021/09/06 07:22:26;;;;;;;10.13;9.20;;;16.80;99.90;;;;;;4955831;28;20296;-78
2021/09/06 07:24:53;;;;;;;12.37;11.27;;;17.20;99.90;;;;;;4955863;28;20201;-79
2021/09/06 07:27:21;;;;;;;12.57;11.43;;;17.60;99.90;;;;;;4956029;28;20581;-79
2021/09/06 07:29:50;;;;;;;11.43;10.30;;;18.00;99.90;;;;;;4948744;28;20220;-78
2021/09/06 07:32:17;;;;;;;8.63;7.73;;;18.30;99.90;;;;;;4956259;28;20590;-79
2021/09/06 07:34:45;;;;;;;10.70;9.80;;;18.70;99.90;;;;;;4956129;28;20256;-78
2021/09/06 07:37:14;;;;;;;9.83;9.03;;;19.10;99.90;;;;;;4971610;28;20325;-79
2021/09/06 07:39:46;;;;;;;9.00;8.20;;;19.40;99.90;;;;;;4955816;28;20269;-79
2021/09/06 07:42:14;;;;;;;11.83;10.73;;;19.70;99.90;;;;;;4955697;28;20201;-79
2021/09/06 07:44:42;;;;;;;12.07;11.07;;;20.10;99.90;;;;;;4955765;28;20283;-79
2021/09/06 07:47:09;;;;;;;13.47;12.30;;;20.30;99.90;;;;;;4955614;28;20241;-79
2021/09/06 07:49:36;;;;;;;11.30;10.20;;;20.60;99.90;;;;;;4955949;28;20741;-79
2021/09/06 07:52:04;;;;;;;8.60;7.70;;;20.80;99.90;;;;;;4957300;28;20708;-78
2021/09/06 07:54:33;;;;;;;11.83;10.93;;;21.10;99.90;;;;;;4956023;28;20216;-79
2021/09/06 07:57:03;;;;;;;11.20;10.30;;;21.10;99.90;;;;;;4956001;28;20252;-78
2021/09/06 07:59:31;;;;;;;11.93;11.03;;;21.40;99.90;;;;;;4957101;28;20202;-79
2021/09/06 08:01:58;;;;;;;11.07;10.17;;;21.70;99.90;;;;;;4957136;28;20618;-79
2021/09/06 08:04:26;;;;;;;11.87;10.87;;;22.00;99.90;;;;;;4956612;28;20208;-79
2021/09/06 08:06:54;;;;;;;10.97;9.87;;;22.10;99.90;;;;;;4956479;28;20209;-79
2021/09/06 08:09:21;;;;;;;8.90;8.10;;;22.30;99.90;;;;;;4955574;28;20280;-79
2021/09/06 08:11:50;;;;;;;9.33;8.33;;;22.50;99.90;;;;;;4972231;28;20564;-79
2021/09/06 08:14:21;;;;;;;13.17;8.27;;;22.70;99.90;;;;;;4956142;28;20683;-78
2021/09/06 08:16:49;;;;;;;10.90;7.97;;;22.70;99.90;;;;;;4955849;28;20292;-79
2021/09/06 08:19:15;;;;;;;16.13;12.57;;;23.00;99.90;;;;;;4955308;28;20249;-79
2021/09/06 08:21:43;;;;;;;15.47;14.00;;;22.90;99.90;;;;;;4955422;28;20202;-79
2021/09/06 08:24:13;;;;;;;14.33;13.13;;;23.00;99.90;;;;;;4956003;28;20206;-80
2021/09/06 08:26:41;;;;;;;12.77;11.67;;;23.10;99.90;;;;;;4955929;28;20205;-79
2021/09/06 08:29:10;;;;;;;12.83;11.70;;;23.20;99.90;;;;;;4955460;28;20229;-79
2021/09/06 08:31:37;;;;;;;13.00;11.83;;;23.20;99.90;;;;;;4955865;28;20209;-79
2021/09/06 08:34:04;;;;;;;13.63;12.53;;;23.30;99.90;;;;;;4956047;28;20214;-79
2021/09/06 08:36:34;;;;;;;13.20;12.20;;;23.50;99.90;;;;;;4955429;28;20218;-79
2021/09/06 08:39:02;;;;;;;14.07;12.97;;;23.60;99.90;;;;;;4955363;28;20241;-79
2021/09/06 08:41:29;;;;;;;13.57;12.43;;;23.80;99.90;;;;;;4957343;28;20208;-79
2021/09/06 08:43:58;;;;;;;12.63;11.67;;;24.10;99.90;;;;;;4960956;28;20667;-79
2021/09/06 08:46:26;;;;;;;13.03;11.83;;;24.30;99.90;;;;;;4959435;28;20212;-80
2021/09/06 08:48:55;;;;;;;11.57;10.57;;;24.50;99.90;;;;;;4959197;28;20300;-80
2021/09/06 08:51:25;;;;;;;12.17;11.27;;;24.60;99.90;;;;;;4959360;28;20205;-82
2021/09/06 08:53:52;;;;;;;13.00;12.00;;;24.60;99.90;;;;;;4957273;28;20194;-79
2021/09/06 08:56:21;;;;;;;13.70;12.70;;;24.60;99.90;;;;;;4958485;28;20198;-81
2021/09/06 08:58:49;;;;;;;12.17;11.27;;;24.80;99.90;;;;;;4957857;28;20230;-81
2021/09/06 09:01:18;;;;;;;11.90;10.80;;;24.60;99.90;;;;;;4961802;28;20208;-83
2021/09/06 09:04:14;;;;;;;12.53;11.57;;;24.80;99.90;;;;;;4950130;28;20205;-82
2021/09/06 09:06:54;;;;;;;11.70;10.53;;;25.00;99.90;;;;;;4958526;28;20693;-82
2021/09/06 09:09:37;;;;;;;8.13;6.40;;;24.60;99.90;;;;;;4959104;28;20210;-82
2021/09/06 09:12:26;;;;;;;12.67;11.67;;;24.60;99.90;;;;;;4943787;28;20713;-82
2021/09/06 09:15:07;;;;;;;14.63;13.17;;;24.80;99.90;;;;;;4958507;28;20226;-83
2021/09/06 09:18:01;;;;;;;13.20;12.10;;;25.10;99.90;;;;;;4958178;28;20312;-82
2021/09/06 09:20:44;;;;;;;13.40;12.33;;;25.10;99.90;;;;;;4958518;28;20289;-81
2021/09/06 09:23:36;;;;;;;16.17;11.50;;;25.40;99.90;;;;;;4958224;28;20197;-82
2021/09/06 09:26:09;;;;;;;7.57;6.50;;;25.70;99.90;;;;;;4958078;28;20666;-79
2021/09/06 09:29:01;;;;;;;8.07;7.27;;;25.40;99.90;;;;;;4957587;28;20221;-80
2021/09/06 09:31:49;;;;;;;7.77;7.07;;;25.10;99.90;;;;;;4958389;28;20205;-81
2021/09/06 09:34:40;;;;;;;9.53;8.63;;;25.50;99.90;;;;;;4962038;28;20233;-83
2021/09/06 09:40:10;;;;;;;12.07;11.20;;;25.50;99.90;;;;;;4959142;28;20201;-84
2021/09/06 09:42:47;;;;;;;13.40;12.30;;;25.20;99.90;;;;;;4973976;28;20452;-84
2021/09/06 09:45:14;;;;;;;13.73;12.30;;;24.70;99.90;;;;;;4956724;28;20613;-84
2021/09/06 09:47:52;;;;;;;12.27;11.37;;;24.40;99.90;;;;;;4956357;28;20223;-83
2021/09/06 09:50:19;;;;;;;12.73;11.77;;;24.60;99.90;;;;;;4956527;28;20292;-85
2021/09/06 09:52:49;;;;;;;13.03;12.03;;;24.50;99.90;;;;;;4956206;28;20194;-84
2021/09/06 09:55:17;;;;;;;12.90;11.60;;;25.00;99.90;;;;;;4974018;28;20214;-84
2021/09/06 09:57:45;;;;;;;12.80;11.63;;;25.00;99.90;;;;;;4957014;28;20718;-84
2021/09/06 10:00:14;;;;;;;12.77;11.77;;;25.20;99.90;;;;;;4951438;29;20257;-84
2021/09/06 10:02:47;;;;;;;12.87;11.77;;;25.10;99.90;;;;;;4973553;28;20220;-85
2021/09/06 10:05:15;;;;;;;13.17;12.00;;;24.60;99.90;;;;;;4957300;28;20212;-85
2021/09/06 10:07:47;;;;;;;13.47;12.17;;;24.80;99.90;;;;;;4973105;28;20228;-80
2021/09/06 10:10:28;;;;;;;13.07;11.97;;;24.60;99.90;;;;;;4971609;28;20212;-84
2021/09/06 10:13:06;;;;;;;13.37;12.33;;;24.60;99.90;;;;;;4967196;28;20202;-81
2021/09/06 10:15:36;;;;;;;13.90;12.80;;;24.60;99.90;;;;;;4955601;28;20648;-85
2021/09/06 10:18:15;;;;;;;13.23;12.23;;;24.80;99.90;;;;;;4955353;28;20245;-85
2021/09/06 10:20:43;;;;;;;12.83;11.83;;;24.80;99.90;;;;;;4971282;28;20201;-85
2021/09/06 10:23:13;;;;;;;12.63;11.50;;;24.90;99.90;;;;;;4955845;28;20206;-85
2021/09/06 10:25:43;;;;;;;13.13;12.03;;;25.00;99.90;;;;;;4956084;28;20644;-85
2021/09/06 10:28:14;;;;;;;13.53;12.43;;;25.00;99.90;;;;;;4955286;28;20309;-84
2021/09/06 10:31:18;;;;;;;13.23;12.07;;;25.00;99.90;;;;;;4955485;28;20194;-85
2021/09/06 10:34:23;;;;;;;13.80;12.80;;;24.80;99.90;;;;;;4954541;28;20219;-86
2021/09/06 10:37:02;;;;;;;13.90;12.70;;;24.70;99.90;;;;;;4968037;28;20227;-84
2021/09/06 10:39:30;;;;;;;13.63;12.33;;;24.60;99.90;;;;;;4953769;28;20507;-84
2021/09/06 10:42:07;;;;;;;13.33;12.10;;;24.50;99.90;;;;;;4969397;28;20198;-84
2021/09/06 10:44:37;;;;;;;12.70;11.70;;;24.60;99.90;;;;;;4969250;28;20189;-84
2021/09/06 10:47:10;;;;;;;12.93;11.93;;;24.60;99.90;;;;;;4970565;28;20206;-84
2021/09/06 10:49:41;;;;;;;12.80;11.80;;;24.60;99.90;;;;;;4964861;28;20758;-84
2021/09/06 10:52:09;;;;;;;13.23;12.03;;;24.70;99.90;;;;;;4956083;28;20217;-85
2021/09/06 10:54:39;;;;;;;12.90;11.87;;;24.60;99.90;;;;;;4955901;28;20678;-84
2021/09/06 10:57:14;;;;;;;13.20;12.13;;;24.60;99.90;;;;;;4973166;28;20209;-84
2021/09/06 10:59:45;;;;;;;13.60;12.33;;;24.70;99.90;;;;;;4953068;28;20658;-84
2021/09/06 11:02:12;;;;;;;12.77;11.77;;;24.50;99.90;;;;;;4955961;28;20209;-84
2021/09/06 11:04:40;;;;;;;13.57;12.27;;;24.40;99.90;;;;;;4955327;28;20198;-85
2021/09/06 11:07:08;;;;;;;13.03;12.03;;;24.40;99.90;;;;;;4955999;28;20288;-85
2021/09/06 11:09:38;;;;;;;13.13;12.03;;;24.50;99.90;;;;;;4955754;28;20202;-85
2021/09/06 11:12:09;;;;;;;12.73;11.63;;;24.60;99.90;;;;;;4961276;28;20208;-85
2021/09/06 11:14:40;;;;;;;12.27;11.37;;;24.50;99.90;;;;;;4956013;28;20252;-84
2021/09/06 11:17:23;;;;;;;12.83;11.73;;;24.50;99.90;;;;;;4973075;28;20193;-84
2021/09/06 11:19:55;;;;;;;12.20;11.30;;;24.30;99.90;;;;;;4973138;28;20217;-84
2021/09/06 11:37:57;;;;;;;12.70;11.50;;;24.40;99.90;;;;;;2731119;23;20683;-79
2021/09/06 11:40:24;;;;;;;12.60;11.47;;;24.40;99.90;;;;;;4993455;28;20197;-80
2021/09/06 11:42:52;;;;;;;12.93;11.93;;;24.50;99.90;;;;;;4986873;28;20209;-80
2021/09/06 11:45:21;;;;;;;12.47;11.27;;;24.50;99.90;;;;;;4995301;28;20193;-79
2021/09/06 11:47:48;;;;;;;12.40;11.30;;;24.50;99.90;;;;;;4995099;28;20721;-80
2021/09/06 11:50:16;;;;;;;12.40;11.40;;;24.60;99.90;;;;;;4987699;28;20229;-79
2021/09/06 11:52:45;;;;;;;12.03;11.03;;;24.60;99.90;;;;;;4985502;28;20604;-80
2021/09/06 11:55:15;;;;;;;12.73;11.70;;;24.60;99.90;;;;;;4986586;28;20224;-80
2021/09/06 11:57:42;;;;;;;12.07;10.97;;;24.60;99.90;;;;;;4985044;28;20194;-80
2021/09/06 12:00:11;;;;;;;12.00;11.10;;;24.60;99.90;;;;;;4986126;28;20204;-79
2021/09/06 12:02:51;;;;;;;11.97;10.90;;;24.50;99.90;;;;;;4984889;28;20206;-80
2021/09/06 12:05:19;;;;;;;11.50;10.70;;;24.40;99.90;;;;;;4986670;28;20689;-79
2021/09/06 12:07:47;;;;;;;11.60;10.70;;;24.30;99.90;;;;;;4985705;28;20209;-80
2021/09/06 12:10:26;;;;;;;11.50;10.63;;;24.30;99.90;;;;;;4988490;28;20197;-79
2021/09/06 12:13:01;;;;;;;11.33;10.43;;;24.50;99.90;;;;;;4984536;28;20262;-79
2021/09/06 12:15:29;;;;;;;11.57;10.67;;;24.50;99.90;;;;;;4987786;28;20239;-80
2021/09/06 12:18:10;;;;;;;12.00;11.10;;;24.40;99.90;;;;;;4989596;28;20652;-80
2021/09/06 12:20:41;;;;;;;11.80;10.90;;;24.50;99.90;;;;;;4989278;28;20564;-80
2021/09/06 12:23:09;;;;;;;10.60;9.80;;;24.50;99.90;;;;;;4988370;28;20633;-80
2021/09/06 12:25:38;;;;;;;12.17;11.17;;;24.60;99.90;;;;;;4988972;28;20205;-80
2021/09/06 12:28:10;;;;;;;11.90;10.93;;;24.60;99.90;;;;;;4987140;28;20222;-79
2021/09/06 12:30:38;;;;;;;11.40;10.50;;;24.50;99.90;;;;;;4977568;28;20260;-79
2021/09/06 12:33:05;;;;;;;11.20;10.30;;;24.50;99.90;;;;;;4977904;28;20547;-79
2021/09/06 12:35:32;;;;;;;11.30;10.30;;;24.50;99.90;;;;;;4980777;28;20213;-80
2021/09/06 12:37:58;;;;;;;12.47;10.80;;;24.50;99.90;;;;;;4969565;28;20238;-80
2021/09/06 12:40:25;;;;;;;11.50;10.60;;;24.50;99.90;;;;;;4980790;28;20195;-81
2021/09/06 12:42:54;;;;;;;11.47;10.57;;;24.50;99.90;;;;;;4992431;28;20221;-82
2021/09/06 12:45:21;;;;;;;11.17;10.37;;;24.50;99.90;;;;;;4989030;28;20724;-81
2021/09/06 12:47:48;;;;;;;11.27;10.37;;;24.60;99.90;;;;;;4991392;28;20236;-81
2021/09/06 12:50:15;;;;;;;11.07;10.17;;;24.60;99.90;;;;;;4995666;28;20205;-81
2021/09/06 12:52:42;;;;;;;11.20;10.30;;;24.60;99.90;;;;;;4991090;28;20696;-81
2021/09/06 12:55:10;;;;;;;11.13;10.23;;;24.60;99.90;;;;;;4989903;28;20283;-81
2021/09/06 12:57:37;;;;;;;10.40;9.60;;;24.70;99.90;;;;;;4989592;28;20234;-81
2021/09/06 13:00:07;;;;;;;10.77;9.93;;;24.80;99.90;;;;;;4992799;28;20200;-81
2021/09/06 13:02:34;;;;;;;11.53;10.53;;;24.60;99.90;;;;;;4991863;28;20200;-80
2021/09/06 13:05:01;;;;;;;11.07;10.17;;;24.60;99.90;;;;;;4994755;28;20205;-81